Time,TemperatureF,DewpointF,PressureIn,WindDirection,WindDirectionDegrees,WindSpeedMPH,WindSpeedGustMPH,Humidity,HourlyPrecipIn,Conditions,Clouds,dailyrainin,SolarRadiationWatts/m^2,SoftwareType,DateUTC
2013-05-03 00:01:00,64.0,32.0,-100.00,WSW,246,0.0,9.0,30,0.00,,,0.00,0.000000,,2013-05-03 07:01:00,
2013-05-03 00:11:00,64.0,32.0,-100.00,WSW,246,0.0,9.0,30,0.00,,,0.00,0.000000,,2013-05-03 07:11:00,
2013-05-03 00:21:00,64.0,32.0,-100.00,WSW,246,0.0,9.0,30,0.00,,,0.00,0.000000,,2013-05-03 07:21:00,
2013-05-03 00:52:00,61.0,29.0,-100.00,NNE,28,1.0,8.0,30,0.00,,,0.00,0.000000,,2013-05-03 07:52:00,
2013-05-03 01:11:00,61.0,29.0,-100.00,NNE,28,1.0,8.0,30,0.00,,,0.00,0.000000,,2013-05-03 08:11:00,
2013-05-03 01:21:00,61.0,29.0,-100.00,NNE,28,1.0,8.0,30,0.00,,,0.00,0.000000,,2013-05-03 08:21:00,
2013-05-03 01:52:00,59.0,28.0,-100.00,North,5,0.0,7.0,30,0.00,,,0.00,0.000000,,2013-05-03 08:52:00,
2013-05-03 02:01:00,59.0,28.0,-100.00,North,5,0.0,7.0,30,0.00,,,0.00,0.000000,,2013-05-03 09:01:00,
2013-05-03 02:11:00,59.0,28.0,-100.00,North,5,0.0,7.0,30,0.00,,,0.00,0.000000,,2013-05-03 09:11:00,
2013-05-03 02:21:00,59.0,28.0,-100.00,North,5,0.0,7.0,30,0.00,,,0.00,0.000000,,2013-05-03 09:21:00,
2013-05-03 02:53:00,54.0,28.0,-100.00,SE,125,0.0,4.0,36,0.00,,,0.00,0.000000,,2013-05-03 09:53:00,
2013-05-03 03:02:00,54.0,28.0,-100.00,SE,125,0.0,4.0,36,0.00,,,0.00,0.000000,,2013-05-03 10:02:00,
2013-05-03 03:12:00,54.0,28.0,-100.00,SE,125,0.0,4.0,36,0.00,,,0.00,0.000000,,2013-05-03 10:12:00,
2013-05-03 03:22:00,54.0,28.0,-100.00,SE,125,0.0,4.0,36,0.00,,,0.00,0.000000,,2013-05-03 10:22:00,
2013-05-03 03:52:00,52.0,28.0,-100.00,West,272,0.0,4.0,39,0.00,,,0.00,0.000000,,2013-05-03 10:52:00,
2013-05-03 04:02:00,52.0,28.0,-100.00,West,272,0.0,4.0,39,0.00,,,0.00,0.000000,,2013-05-03 11:02:00,
2013-05-03 04:11:00,52.0,28.0,-100.00,West,272,0.0,4.0,39,0.00,,,0.00,0.000000,,2013-05-03 11:11:00,
2013-05-03 04:21:00,52.0,28.0,-100.00,West,272,0.0,4.0,39,0.00,,,0.00,0.000000,,2013-05-03 11:21:00,
2013-05-03 04:52:00,49.0,27.0,-100.00,NNW,335,0.0,5.0,43,0.00,,,0.00,0.000000,,2013-05-03 11:52:00,
2013-05-03 05:01:00,49.0,27.0,-100.00,NNW,335,0.0,5.0,43,0.00,,,0.00,0.000000,,2013-05-03 12:01:00,
2013-05-03 05:11:00,49.0,27.0,-100.00,NNW,335,0.0,5.0,43,0.00,,,0.00,0.000000,,2013-05-03 12:11:00,
2013-05-03 05:21:00,49.0,27.0,-100.00,NNW,335,0.0,5.0,43,0.00,,,0.00,0.000000,,2013-05-03 12:21:00,
2013-05-03 05:52:00,49.0,27.0,-100.00,North,3,0.0,5.0,43,0.00,,,0.00,0.000000,,2013-05-03 12:52:00,
2013-05-03 06:22:00,49.0,27.0,-100.00,North,3,0.0,5.0,43,0.00,,,0.00,0.000000,,2013-05-03 13:22:00,
2013-05-03 06:52:00,48.0,30.0,-100.00,WSW,247,0.0,4.0,49,0.00,,,0.00,11.000000,,2013-05-03 13:52:00,
2013-05-03 07:01:00,48.0,30.0,-100.00,WSW,247,0.0,4.0,49,0.00,,,0.00,11.000000,,2013-05-03 14:01:00,
2013-05-03 07:11:00,48.0,30.0,-100.00,WSW,247,0.0,4.0,49,0.00,,,0.00,11.000000,,2013-05-03 14:11:00,
2013-05-03 07:21:00,48.0,30.0,-100.00,WSW,247,0.0,4.0,49,0.00,,,0.00,11.000000,,2013-05-03 14:21:00,
2013-05-03 07:52:00,56.0,32.0,-100.00,South,178,0.0,5.0,40,0.00,,,0.00,151.000000,,2013-05-03 14:52:00,
2013-05-03 08:01:00,56.0,32.0,-100.00,South,178,0.0,5.0,40,0.00,,,0.00,151.000000,,2013-05-03 15:01:00,
2013-05-03 08:11:00,56.0,32.0,-100.00,South,178,0.0,5.0,40,0.00,,,0.00,151.000000,,2013-05-03 15:11:00,
2013-05-03 08:22:00,56.0,32.0,-100.00,South,178,0.0,5.0,40,0.00,,,0.00,151.000000,,2013-05-03 15:22:00,
2013-05-03 08:53:00,61.0,33.0,-100.00,SE,143,0.0,4.0,35,0.00,,,0.00,371.000000,,2013-05-03 15:53:00,
2013-05-03 09:03:00,61.0,33.0,-100.00,SE,143,0.0,4.0,35,0.00,,,0.00,371.000000,,2013-05-03 16:03:00,
2013-05-03 09:12:00,61.0,33.0,-100.00,SE,143,0.0,4.0,35,0.00,,,0.00,371.000000,,2013-05-03 16:12:00,
2013-05-03 09:22:00,61.0,33.0,-100.00,SE,143,0.0,4.0,35,0.00,,,0.00,371.000000,,2013-05-03 16:22:00,
2013-05-03 09:52:00,62.0,33.0,-100.00,ENE,75,5.0,6.0,33,0.00,,,0.00,567.000000,,2013-05-03 16:52:00,
2013-05-03 10:02:00,62.0,33.0,-100.00,ENE,75,5.0,6.0,33,0.00,,,0.00,567.000000,,2013-05-03 17:02:00,
2013-05-03 10:11:00,62.0,33.0,-100.00,ENE,75,5.0,6.0,33,0.00,,,0.00,567.000000,,2013-05-03 17:11:00,
2013-05-03 10:22:00,62.0,33.0,-100.00,ENE,75,5.0,6.0,33,0.00,,,0.00,567.000000,,2013-05-03 17:22:00,
2013-05-03 10:52:00,69.0,39.0,-100.00,SSW,211,2.0,8.0,33,0.00,,,0.00,742.000000,,2013-05-03 17:52:00,
2013-05-03 11:01:00,69.0,39.0,-100.00,SSW,211,2.0,8.0,33,0.00,,,0.00,742.000000,,2013-05-03 18:01:00,
2013-05-03 11:12:00,69.0,39.0,-100.00,SSW,211,2.0,8.0,33,0.00,,,0.00,742.000000,,2013-05-03 18:12:00,
2013-05-03 11:21:00,69.0,39.0,-100.00,SSW,211,2.0,8.0,33,0.00,,,0.00,742.000000,,2013-05-03 18:21:00,
2013-05-03 11:52:00,71.0,35.0,-100.00,East,98,4.0,6.0,27,0.00,,,0.00,878.000000,,2013-05-03 18:52:00,
2013-05-03 12:01:00,71.0,35.0,-100.00,East,98,4.0,6.0,27,0.00,,,0.00,878.000000,,2013-05-03 19:01:00,
2013-05-03 12:11:00,71.0,35.0,-100.00,East,98,4.0,6.0,27,0.00,,,0.00,878.000000,,2013-05-03 19:11:00,
2013-05-03 12:21:00,71.0,35.0,-100.00,East,98,4.0,6.0,27,0.00,,,0.00,878.000000,,2013-05-03 19:21:00,
2013-05-03 12:52:00,75.0,35.0,-100.00,NE,46,5.0,11.0,23,0.00,,,0.00,974.000000,,2013-05-03 19:52:00,
2013-05-03 13:02:00,75.0,35.0,-100.00,NE,46,5.0,11.0,23,0.00,,,0.00,974.000000,,2013-05-03 20:02:00,
2013-05-03 13:11:00,75.0,35.0,-100.00,NE,46,5.0,11.0,23,0.00,,,0.00,974.000000,,2013-05-03 20:11:00,
2013-05-03 13:21:00,75.0,35.0,-100.00,NE,46,5.0,11.0,23,0.00,,,0.00,974.000000,,2013-05-03 20:21:00,
2013-05-03 13:52:00,78.0,34.0,-100.00,East,80,5.0,9.0,20,0.00,,,0.00,988.000000,,2013-05-03 20:52:00,
2013-05-03 14:01:00,78.0,34.0,-100.00,East,80,5.0,9.0,20,0.00,,,0.00,988.000000,,2013-05-03 21:01:00,
2013-05-03 14:11:00,78.0,34.0,-100.00,East,80,5.0,9.0,20,0.00,,,0.00,988.000000,,2013-05-03 21:11:00,
2013-05-03 14:21:00,78.0,34.0,-100.00,East,80,5.0,9.0,20,0.00,,,0.00,988.000000,,2013-05-03 21:21:00,
2013-05-03 14:53:00,80.0,35.0,-100.00,NE,36,5.0,9.0,20,0.00,,,0.00,963.000000,,2013-05-03 21:53:00,
2013-05-03 15:02:00,80.0,35.0,-100.00,NE,36,5.0,9.0,20,0.00,,,0.00,963.000000,,2013-05-03 22:02:00,
2013-05-03 15:12:00,80.0,35.0,-100.00,NE,36,5.0,9.0,20,0.00,,,0.00,963.000000,,2013-05-03 22:12:00,
2013-05-03 15:22:00,80.0,35.0,-100.00,NE,36,5.0,9.0,20,0.00,,,0.00,963.000000,,2013-05-03 22:22:00,
2013-05-03 17:52:00,79.0,33.0,-100.00,North,2,7.0,12.0,19,-99.99,,,0.00,580.000000,,2013-05-04 00:52:00,
2013-05-03 18:01:00,79.0,33.0,-100.00,North,2,7.0,12.0,19,-99.99,,,0.00,580.000000,,2013-05-04 01:01:00,
2013-05-03 18:11:00,79.0,33.0,-100.00,North,2,7.0,12.0,19,-99.99,,,0.00,580.000000,,2013-05-04 01:11:00,
2013-05-03 18:21:00,79.0,33.0,-100.00,North,2,7.0,12.0,19,-99.99,,,0.00,580.000000,,2013-05-04 01:21:00,
2013-05-03 18:52:00,77.0,34.0,-100.00,North,359,9.0,14.0,21,0.00,,,0.00,332.000000,,2013-05-04 01:52:00,
2013-05-03 19:02:00,77.0,34.0,-100.00,North,359,9.0,14.0,21,0.00,,,0.00,332.000000,,2013-05-04 02:02:00,
2013-05-03 19:11:00,77.0,34.0,-100.00,North,359,9.0,14.0,21,0.00,,,0.00,332.000000,,2013-05-04 02:11:00,
2013-05-03 19:21:00,77.0,34.0,-100.00,North,359,9.0,14.0,21,0.00,,,0.00,332.000000,,2013-05-04 02:21:00,
2013-05-03 19:52:00,74.0,34.0,-100.00,North,357,6.0,13.0,23,0.00,,,0.00,35.000000,,2013-05-04 02:52:00,
2013-05-03 20:02:00,74.0,34.0,-100.00,North,357,6.0,13.0,23,0.00,,,0.00,35.000000,,2013-05-04 03:02:00,
2013-05-03 20:11:00,74.0,34.0,-100.00,North,357,6.0,13.0,23,0.00,,,0.00,35.000000,,2013-05-04 03:11:00,
2013-05-03 20:21:00,74.0,34.0,-100.00,North,357,6.0,13.0,23,0.00,,,0.00,35.000000,,2013-05-04 03:21:00,
2013-05-03 20:53:00,70.0,33.0,-100.00,NNE,21,4.0,10.0,25,0.00,,,0.00,13.000000,,2013-05-04 03:53:00,
2013-05-03 21:02:00,70.0,33.0,-100.00,NNE,21,4.0,10.0,25,0.00,,,0.00,13.000000,,2013-05-04 04:02:00,
2013-05-03 21:12:00,70.0,33.0,-100.00,NNE,21,4.0,10.0,25,0.00,,,0.00,13.000000,,2013-05-04 04:12:00,
2013-05-03 21:22:00,70.0,33.0,-100.00,NNE,21,4.0,10.0,25,0.00,,,0.00,13.000000,,2013-05-04 04:22:00,
2013-05-03 21:52:00,65.0,33.0,-100.00,SSW,195,0.0,9.0,30,0.00,,,0.00,0.000000,,2013-05-04 04:52:00,
2013-05-03 22:02:00,65.0,33.0,-100.00,SSW,195,0.0,9.0,30,0.00,,,0.00,0.000000,,2013-05-04 05:02:00,
2013-05-03 22:11:00,65.0,33.0,-100.00,SSW,195,0.0,9.0,30,0.00,,,0.00,0.000000,,2013-05-04 05:11:00,
2013-05-03 22:21:00,65.0,33.0,-100.00,SSW,195,0.0,9.0,30,0.00,,,0.00,0.000000,,2013-05-04 05:21:00,
2013-05-03 22:52:00,60.0,32.0,-100.00,NE,55,0.0,4.0,35,0.00,,,0.00,0.000000,,2013-05-04 05:52:00,
2013-05-03 23:01:00,60.0,32.0,-100.00,NE,55,0.0,4.0,35,0.00,,,0.00,0.000000,,2013-05-04 06:01:00,
2013-05-03 23:11:00,60.0,32.0,-100.00,NE,55,0.0,4.0,35,0.00,,,0.00,0.000000,,2013-05-04 06:11:00,
2013-05-03 23:21:00,60.0,32.0,-100.00,NE,55,0.0,4.0,35,0.00,,,0.00,0.000000,,2013-05-04 06:21:00,
2013-05-03 23:52:00,58.0,36.0,-100.00,SW,215,1.0,4.0,43,0.00,,,0.00,0.000000,,2013-05-04 06:52:00,